sensor_id;sensor_type;location;lat;lon;timestamp;pressure;altitude;pressure_sealevel;temperature;humidity
60258;BME280;46115;44.484;11.314;2023-04-29T00:03:32;100213.56;;;17.30;62.89
60258;BME280;46115;44.484;11.314;2023-04-29T00:07:34;100220.97;;;17.27;63.04
60258;BME280;46115;44.484;11.314;2023-04-29T00:11:37;100212.81;;;17.28;63.35
60258;BME280;46115;44.484;11.314;2023-04-29T00:15:41;100204.56;;;17.42;62.66
60258;BME280;46115;44.484;11.314;2023-04-29T00:19:43;100208.09;;;17.86;61.76
60258;BME280;46115;44.484;11.314;2023-04-29T00:23:46;100214.03;;;17.90;61.71
60258;BME280;46115;44.484;11.314;2023-04-29T00:27:48;100199.22;;;17.31;64.59
60258;BME280;46115;44.484;11.314;2023-04-29T00:31:52;100193.56;;;17.68;63.85
60258;BME280;46115;44.484;11.314;2023-04-29T00:35:54;100192.63;;;17.90;63.68
60258;BME280;46115;44.484;11.314;2023-04-29T00:39:57;100157.97;;;17.67;64.55
60258;BME280;46115;44.484;11.314;2023-04-29T00:43:59;100178.72;;;17.64;66.12
60258;BME280;46115;44.484;11.314;2023-04-29T00:48:04;100166.72;;;17.69;67.04
60258;BME280;46115;44.484;11.314;2023-04-29T00:52:06;100156.38;;;17.76;66.95
60258;BME280;46115;44.484;11.314;2023-04-29T00:56:09;100169.31;;;17.49;67.94
60258;BME280;46115;44.484;11.314;2023-04-29T01:00:14;100171.59;;;17.10;69.50
60258;BME280;46115;44.484;11.314;2023-04-29T01:04:19;100168.06;;;17.09;69.62
60258;BME280;46115;44.484;11.314;2023-04-29T01:08:31;100174.38;;;16.97;70.30
60258;BME280;46115;44.484;11.314;2023-04-29T01:12:41;100195.38;;;17.13;69.38
60258;BME280;46115;44.484;11.314;2023-04-29T01:16:50;100199.59;;;17.27;69.76
60258;BME280;46115;44.484;11.314;2023-04-29T01:20:55;100214.44;;;16.86;71.60
60258;BME280;46115;44.484;11.314;2023-04-29T01:24:59;100216.22;;;17.30;69.54
60258;BME280;46115;44.484;11.314;2023-04-29T01:29:17;100217.97;;;16.29;73.94
60258;BME280;46115;44.484;11.314;2023-04-29T01:33:31;100227.91;;;16.84;72.56
60258;BME280;46115;44.484;11.314;2023-04-29T01:37:40;100212.44;;;16.54;73.75
60258;BME280;46115;44.484;11.314;2023-04-29T01:41:54;100203.16;;;17.05;71.51
60258;BME280;46115;44.484;11.314;2023-04-29T01:46:05;100194.66;;;17.00;72.23
60258;BME280;46115;44.484;11.314;2023-04-29T01:50:08;100207.16;;;16.66;72.94
60258;BME280;46115;44.484;11.314;2023-04-29T01:54:11;100188.19;;;16.35;74.47
60258;BME280;46115;44.484;11.314;2023-04-29T01:58:16;100191.16;;;16.19;75.10
60258;BME280;46115;44.484;11.314;2023-04-29T02:02:42;100192.53;;;16.36;74.73
60258;BME280;46115;44.484;11.314;2023-04-29T02:07:00;100188.53;;;16.53;74.05
60258;BME280;46115;44.484;11.314;2023-04-29T02:11:03;100187.22;;;16.47;74.33
60258;BME280;46115;44.484;11.314;2023-04-29T02:15:15;100178.59;;;16.33;74.81
60258;BME280;46115;44.484;11.314;2023-04-29T02:19:20;100173.25;;;16.33;74.78
60258;BME280;46115;44.484;11.314;2023-04-29T02:23:25;100177.38;;;15.90;75.31
60258;BME280;46115;44.484;11.314;2023-04-29T02:27:28;100190.06;;;16.22;73.33
60258;BME280;46115;44.484;11.314;2023-04-29T02:31:31;100189.72;;;16.27;72.45
60258;BME280;46115;44.484;11.314;2023-04-29T02:35:34;100181.41;;;16.53;71.52
60258;BME280;46115;44.484;11.314;2023-04-29T02:39:36;100178.47;;;16.57;71.46
60258;BME280;46115;44.484;11.314;2023-04-29T02:43:39;100176.13;;;16.30;72.25
60258;BME280;46115;44.484;11.314;2023-04-29T02:47:42;100163.94;;;16.49;69.50
60258;BME280;46115;44.484;11.314;2023-04-29T02:51:45;100167.81;;;16.34;69.88
60258;BME280;46115;44.484;11.314;2023-04-29T02:55:49;100178.34;;;16.36;69.87
60258;BME280;46115;44.484;11.314;2023-04-29T02:59:51;100179.34;;;16.57;69.58
60258;BME280;46115;44.484;11.314;2023-04-29T03:03:55;100173.31;;;16.66;70.19
60258;BME280;46115;44.484;11.314;2023-04-29T03:07:58;100166.69;;;16.26;69.61
60258;BME280;46115;44.484;11.314;2023-04-29T03:12:03;100155.13;;;16.03;70.33
60258;BME280;46115;44.484;11.314;2023-04-29T03:16:06;100147.28;;;15.77;71.65
60258;BME280;46115;44.484;11.314;2023-04-29T03:20:10;100133.25;;;15.86;71.15
60258;BME280;46115;44.484;11.314;2023-04-29T03:24:13;100138.19;;;15.69;71.88
60258;BME280;46115;44.484;11.314;2023-04-29T03:28:16;100150.53;;;15.70;72.03
60258;BME280;46115;44.484;11.314;2023-04-29T03:32:19;100152.97;;;15.73;72.20
60258;BME280;46115;44.484;11.314;2023-04-29T03:36:23;100154.19;;;15.56;72.43
60258;BME280;46115;44.484;11.314;2023-04-29T03:40:33;100137.81;;;15.62;71.96
60258;BME280;46115;44.484;11.314;2023-04-29T03:44:35;100138.91;;;15.71;71.69
60258;BME280;46115;44.484;11.314;2023-04-29T03:48:38;100139.66;;;15.73;71.67
60258;BME280;46115;44.484;11.314;2023-04-29T03:52:42;100132.56;;;15.60;72.46
60258;BME280;46115;44.484;11.314;2023-04-29T03:56:48;100143.63;;;15.67;72.24
60258;BME280;46115;44.484;11.314;2023-04-29T04:00:51;100138.53;;;15.64;73.12
60258;BME280;46115;44.484;11.314;2023-04-29T04:04:57;100126.31;;;15.73;72.57
60258;BME280;46115;44.484;11.314;2023-04-29T04:09:01;100129.00;;;15.73;72.16
60258;BME280;46115;44.484;11.314;2023-04-29T04:13:07;100124.47;;;15.62;72.92
60258;BME280;46115;44.484;11.314;2023-04-29T04:17:09;100122.88;;;15.36;74.10
60258;BME280;46115;44.484;11.314;2023-04-29T04:21:12;100137.06;;;15.47;73.89
60258;BME280;46115;44.484;11.314;2023-04-29T04:25:21;100143.63;;;15.54;73.60
60258;BME280;46115;44.484;11.314;2023-04-29T04:29:24;100136.84;;;15.63;73.73
60258;BME280;46115;44.484;11.314;2023-04-29T04:33:32;100144.38;;;15.80;72.77
60258;BME280;46115;44.484;11.314;2023-04-29T04:37:36;100145.97;;;15.83;72.97
60258;BME280;46115;44.484;11.314;2023-04-29T04:41:39;100150.53;;;16.05;72.42
60258;BME280;46115;44.484;11.314;2023-04-29T04:45:42;100156.75;;;15.81;73.28
60258;BME280;46115;44.484;11.314;2023-04-29T04:49:45;100166.19;;;16.20;72.19
60258;BME280;46115;44.484;11.314;2023-04-29T04:53:50;100172.59;;;16.07;73.05
60258;BME280;46115;44.484;11.314;2023-04-29T04:57:56;100163.63;;;16.08;73.21
60258;BME280;46115;44.484;11.314;2023-04-29T05:01:58;100171.25;;;16.12;73.60
60258;BME280;46115;44.484;11.314;2023-04-29T05:06:01;100181.81;;;16.14;74.23
60258;BME280;46115;44.484;11.314;2023-04-29T05:10:05;100162.06;;;16.16;73.62
60258;BME280;46115;44.484;11.314;2023-04-29T05:14:15;100189.63;;;16.62;73.30
60258;BME280;46115;44.484;11.314;2023-04-29T05:18:18;100172.91;;;16.48;73.25
60258;BME280;46115;44.484;11.314;2023-04-29T05:22:22;100185.16;;;16.62;73.68
60258;BME280;46115;44.484;11.314;2023-04-29T05:26:25;100205.09;;;16.80;72.89
60258;BME280;46115;44.484;11.314;2023-04-29T05:30:32;100189.69;;;16.73;73.17
60258;BME280;46115;44.484;11.314;2023-04-29T05:34:34;100197.88;;;16.59;73.14
60258;BME280;46115;44.484;11.314;2023-04-29T05:38:37;100186.72;;;16.65;74.17
60258;BME280;46115;44.484;11.314;2023-04-29T05:42:43;100188.38;;;16.67;73.90
60258;BME280;46115;44.484;11.314;2023-04-29T05:46:48;100197.47;;;16.76;73.63
60258;BME280;46115;44.484;11.314;2023-04-29T05:50:52;100188.44;;;16.54;74.28
60258;BME280;46115;44.484;11.314;2023-04-29T05:54:55;100197.41;;;16.53;74.84
60258;BME280;46115;44.484;11.314;2023-04-29T05:58:58;100192.53;;;16.47;74.83
60258;BME280;46115;44.484;11.314;2023-04-29T06:03:02;100182.47;;;16.51;73.99
60258;BME280;46115;44.484;11.314;2023-04-29T06:07:04;100182.59;;;16.61;73.78
60258;BME280;46115;44.484;11.314;2023-04-29T06:11:44;100182.91;;;16.69;73.95
60258;BME280;46115;44.484;11.314;2023-04-29T06:15:46;100196.38;;;16.78;73.50
60258;BME280;46115;44.484;11.314;2023-04-29T06:19:51;100187.75;;;16.75;74.32
60258;BME280;46115;44.484;11.314;2023-04-29T06:23:53;100188.84;;;17.06;73.05
60258;BME280;46115;44.484;11.314;2023-04-29T06:27:56;100197.91;;;17.26;72.46
60258;BME280;46115;44.484;11.314;2023-04-29T06:32:02;100187.44;;;17.34;72.54
60258;BME280;46115;44.484;11.314;2023-04-29T06:36:06;100170.53;;;17.44;71.96
60258;BME280;46115;44.484;11.314;2023-04-29T06:40:32;100220.81;;;17.51;72.06
60258;BME280;46115;44.484;11.314;2023-04-29T06:44:52;100203.84;;;17.84;70.46
60258;BME280;46115;44.484;11.314;2023-04-29T06:49:14;100212.63;;;17.63;70.90
60258;BME280;46115;44.484;11.314;2023-04-29T06:53:18;100214.53;;;17.84;70.49
60258;BME280;46115;44.484;11.314;2023-04-29T06:57:20;100215.97;;;18.20;69.92
60258;BME280;46115;44.484;11.314;2023-04-29T07:01:23;100213.97;;;18.01;69.68
60258;BME280;46115;44.484;11.314;2023-04-29T07:05:25;100204.81;;;17.83;69.64
60258;BME280;46115;44.484;11.314;2023-04-29T07:09:29;100199.03;;;17.98;69.64
60258;BME280;46115;44.484;11.314;2023-04-29T07:13:31;100196.84;;;18.45;68.77
60258;BME280;46115;44.484;11.314;2023-04-29T07:17:34;100197.28;;;18.50;67.95
60258;BME280;46115;44.484;11.314;2023-04-29T07:21:36;100191.41;;;18.35;68.63
60258;BME280;46115;44.484;11.314;2023-04-29T07:29:58;100199.88;;;18.61;67.30
60258;BME280;46115;44.484;11.314;2023-04-29T07:34:01;100215.88;;;19.03;66.60
60258;BME280;46115;44.484;11.314;2023-04-29T07:38:03;100224.91;;;18.51;69.95
60258;BME280;46115;44.484;11.314;2023-04-29T07:42:06;100236.44;;;18.72;70.09
60258;BME280;46115;44.484;11.314;2023-04-29T07:46:10;100246.84;;;19.26;67.95
60258;BME280;46115;44.484;11.314;2023-04-29T07:50:13;100251.81;;;19.31;68.60
60258;BME280;46115;44.484;11.314;2023-04-29T07:54:16;100258.81;;;19.53;66.84
60258;BME280;46115;44.484;11.314;2023-04-29T07:58:19;100260.16;;;19.97;65.35
60258;BME280;46115;44.484;11.314;2023-04-29T08:02:23;100265.50;;;19.78;65.34
60258;BME280;46115;44.484;11.314;2023-04-29T08:06:26;100269.28;;;19.75;65.54
60258;BME280;46115;44.484;11.314;2023-04-29T08:10:28;100278.66;;;20.00;64.02
60258;BME280;46115;44.484;11.314;2023-04-29T08:14:31;100271.28;;;19.73;64.19
60258;BME280;46115;44.484;11.314;2023-04-29T08:18:36;100284.81;;;19.72;64.84
60258;BME280;46115;44.484;11.314;2023-04-29T08:22:38;100285.16;;;20.07;62.96
60258;BME280;46115;44.484;11.314;2023-04-29T08:26:40;100280.34;;;19.82;65.24
60258;BME280;46115;44.484;11.314;2023-04-29T08:30:43;100279.88;;;19.67;65.88
60258;BME280;46115;44.484;11.314;2023-04-29T08:34:47;100289.38;;;19.90;66.27
60258;BME280;46115;44.484;11.314;2023-04-29T08:38:50;100295.88;;;20.75;64.11
60258;BME280;46115;44.484;11.314;2023-04-29T08:42:53;100297.06;;;20.53;64.78
60258;BME280;46115;44.484;11.314;2023-04-29T08:46:56;100285.31;;;20.35;63.99
60258;BME280;46115;44.484;11.314;2023-04-29T08:51:02;100291.66;;;20.24;63.30
60258;BME280;46115;44.484;11.314;2023-04-29T08:55:06;100284.59;;;20.04;64.38
60258;BME280;46115;44.484;11.314;2023-04-29T08:59:09;100290.69;;;20.44;64.08
60258;BME280;46115;44.484;11.314;2023-04-29T09:03:15;100287.97;;;20.06;65.19
60258;BME280;46115;44.484;11.314;2023-04-29T09:07:20;100289.84;;;20.44;62.87
60258;BME280;46115;44.484;11.314;2023-04-29T09:11:23;100271.44;;;20.10;64.32
60258;BME280;46115;44.484;11.314;2023-04-29T09:15:25;100287.56;;;20.30;63.63
60258;BME280;46115;44.484;11.314;2023-04-29T09:19:30;100292.22;;;20.37;64.11
60258;BME280;46115;44.484;11.314;2023-04-29T09:23:37;100290.66;;;20.35;63.12
60258;BME280;46115;44.484;11.314;2023-04-29T09:27:39;100288.59;;;20.48;63.65
60258;BME280;46115;44.484;11.314;2023-04-29T09:31:43;100281.91;;;20.62;62.40
60258;BME280;46115;44.484;11.314;2023-04-29T09:35:45;100284.59;;;20.33;63.05
60258;BME280;46115;44.484;11.314;2023-04-29T09:39:50;100279.25;;;20.42;63.08
60258;BME280;46115;44.484;11.314;2023-04-29T09:44:02;100270.47;;;20.21;63.76
60258;BME280;46115;44.484;11.314;2023-04-29T09:48:06;100279.50;;;20.39;63.90
60258;BME280;46115;44.484;11.314;2023-04-29T09:52:10;100269.38;;;20.52;63.84
60258;BME280;46115;44.484;11.314;2023-04-29T09:56:14;100269.91;;;20.56;63.12
60258;BME280;46115;44.484;11.314;2023-04-29T10:00:17;100262.84;;;20.65;63.12
60258;BME280;46115;44.484;11.314;2023-04-29T10:04:21;100263.13;;;20.42;63.65
60258;BME280;46115;44.484;11.314;2023-04-29T10:08:24;100266.81;;;20.51;62.75
60258;BME280;46115;44.484;11.314;2023-04-29T10:12:30;100265.53;;;20.55;63.32
60258;BME280;46115;44.484;11.314;2023-04-29T10:16:38;100246.28;;;19.73;67.35
60258;BME280;46115;44.484;11.314;2023-04-29T10:20:45;100251.69;;;20.31;67.19
60258;BME280;46115;44.484;11.314;2023-04-29T10:24:48;100258.59;;;20.33;70.53
60258;BME280;46115;44.484;11.314;2023-04-29T10:28:54;100240.25;;;19.80;72.60
60258;BME280;46115;44.484;11.314;2023-04-29T10:32:58;100234.91;;;19.40;73.48
60258;BME280;46115;44.484;11.314;2023-04-29T10:37:03;100231.50;;;19.98;71.98
60258;BME280;46115;44.484;11.314;2023-04-29T10:41:09;100221.03;;;19.66;70.29
60258;BME280;46115;44.484;11.314;2023-04-29T10:45:21;100197.91;;;19.84;69.96
60258;BME280;46115;44.484;11.314;2023-04-29T10:49:23;100233.75;;;20.41;69.01
60258;BME280;46115;44.484;11.314;2023-04-29T10:53:34;100220.31;;;20.41;69.83
60258;BME280;46115;44.484;11.314;2023-04-29T10:57:38;100212.84;;;20.06;69.87
60258;BME280;46115;44.484;11.314;2023-04-29T11:01:47;100203.13;;;19.95;70.88
60258;BME280;46115;44.484;11.314;2023-04-29T11:06:07;100194.22;;;20.14;69.21
60258;BME280;46115;44.484;11.314;2023-04-29T11:10:11;100176.50;;;19.34;71.56
60258;BME280;46115;44.484;11.314;2023-04-29T11:14:15;100195.03;;;20.24;68.35
60258;BME280;46115;44.484;11.314;2023-04-29T11:18:23;100195.44;;;20.39;68.34
60258;BME280;46115;44.484;11.314;2023-04-29T11:22:26;100194.88;;;20.54;68.38
60258;BME280;46115;44.484;11.314;2023-04-29T11:26:30;100194.53;;;20.67;66.47
60258;BME280;46115;44.484;11.314;2023-04-29T11:30:34;100195.50;;;20.85;66.75
60258;BME280;46115;44.484;11.314;2023-04-29T11:34:38;100190.41;;;20.82;66.70
60258;BME280;46115;44.484;11.314;2023-04-29T11:38:40;100168.28;;;20.61;65.72
60258;BME280;46115;44.484;11.314;2023-04-29T11:42:44;100199.44;;;21.18;65.14
60258;BME280;46115;44.484;11.314;2023-04-29T11:46:46;100211.31;;;20.79;66.86
60258;BME280;46115;44.484;11.314;2023-04-29T11:50:54;100206.31;;;20.37;66.79
60258;BME280;46115;44.484;11.314;2023-04-29T11:54:58;100196.03;;;20.42;66.50
60258;BME280;46115;44.484;11.314;2023-04-29T11:59:00;100197.63;;;20.72;65.77
60258;BME280;46115;44.484;11.314;2023-04-29T12:03:12;100195.56;;;20.57;64.88
60258;BME280;46115;44.484;11.314;2023-04-29T12:07:17;100201.25;;;20.53;64.75
60258;BME280;46115;44.484;11.314;2023-04-29T12:11:19;100205.22;;;20.49;65.62
60258;BME280;46115;44.484;11.314;2023-04-29T12:15:25;100206.00;;;20.69;65.76
60258;BME280;46115;44.484;11.314;2023-04-29T12:19:29;100179.94;;;20.23;66.59
60258;BME280;46115;44.484;11.314;2023-04-29T12:23:34;100200.41;;;20.53;65.85
60258;BME280;46115;44.484;11.314;2023-04-29T12:27:39;100203.06;;;20.34;65.92
60258;BME280;46115;44.484;11.314;2023-04-29T12:31:46;100199.28;;;20.27;66.32
60258;BME280;46115;44.484;11.314;2023-04-29T12:35:48;100199.25;;;20.36;66.21
60258;BME280;46115;44.484;11.314;2023-04-29T12:39:53;100177.56;;;19.81;68.23
60258;BME280;46115;44.484;11.314;2023-04-29T12:43:56;100182.94;;;19.81;68.67
60258;BME280;46115;44.484;11.314;2023-04-29T12:47:58;100180.78;;;20.23;67.67
60258;BME280;46115;44.484;11.314;2023-04-29T12:52:01;100174.03;;;19.81;69.02
60258;BME280;46115;44.484;11.314;2023-04-29T12:56:06;100184.97;;;20.36;67.78
60258;BME280;46115;44.484;11.314;2023-04-29T13:00:10;100170.19;;;20.22;68.67
60258;BME280;46115;44.484;11.314;2023-04-29T13:04:12;100173.09;;;20.58;67.87
60258;BME280;46115;44.484;11.314;2023-04-29T13:08:15;100172.00;;;20.41;67.50
60258;BME280;46115;44.484;11.314;2023-04-29T13:12:19;100159.13;;;20.54;66.69
60258;BME280;46115;44.484;11.314;2023-04-29T13:16:22;100141.28;;;20.63;67.36
60258;BME280;46115;44.484;11.314;2023-04-29T13:20:24;100136.13;;;20.42;68.42
60258;BME280;46115;44.484;11.314;2023-04-29T13:24:27;100128.88;;;19.86;70.21
60258;BME280;46115;44.484;11.314;2023-04-29T13:28:31;100131.44;;;20.34;69.47
60258;BME280;46115;44.484;11.314;2023-04-29T13:32:33;100123.03;;;20.00;71.17
60258;BME280;46115;44.484;11.314;2023-04-29T13:36:36;100118.13;;;19.76;70.93
60258;BME280;46115;44.484;11.314;2023-04-29T13:40:38;100111.50;;;19.80;70.73
60258;BME280;46115;44.484;11.314;2023-04-29T13:44:42;100117.09;;;20.16;69.93
60258;BME280;46115;44.484;11.314;2023-04-29T13:48:44;100103.00;;;19.94;70.14
60258;BME280;46115;44.484;11.314;2023-04-29T13:52:47;100092.75;;;19.80;70.43
60258;BME280;46115;44.484;11.314;2023-04-29T13:56:49;100091.44;;;19.75;69.41
60258;BME280;46115;44.484;11.314;2023-04-29T14:00:53;100111.56;;;20.27;68.85
60258;BME280;46115;44.484;11.314;2023-04-29T14:04:55;100105.09;;;20.10;67.63
60258;BME280;46115;44.484;11.314;2023-04-29T14:08:58;100098.38;;;19.58;69.59
60258;BME280;46115;44.484;11.314;2023-04-29T14:13:00;100088.03;;;19.34;70.48
60258;BME280;46115;44.484;11.314;2023-04-29T14:17:04;100088.63;;;19.67;70.15
60258;BME280;46115;44.484;11.314;2023-04-29T14:21:07;100094.97;;;19.27;70.75
60258;BME280;46115;44.484;11.314;2023-04-29T14:25:09;100091.44;;;19.17;71.20
60258;BME280;46115;44.484;11.314;2023-04-29T14:29:12;100061.66;;;19.29;69.55
60258;BME280;46115;44.484;11.314;2023-04-29T14:33:16;100082.50;;;19.07;71.18
60258;BME280;46115;44.484;11.314;2023-04-29T14:37:18;100085.94;;;19.47;70.42
60258;BME280;46115;44.484;11.314;2023-04-29T14:41:20;100093.28;;;19.84;69.35
60258;BME280;46115;44.484;11.314;2023-04-29T14:45:23;100089.75;;;19.74;68.90
60258;BME280;46115;44.484;11.314;2023-04-29T14:49:27;100088.69;;;18.88;72.10
60258;BME280;46115;44.484;11.314;2023-04-29T14:53:29;100090.69;;;18.95;72.02
60258;BME280;46115;44.484;11.314;2023-04-29T14:57:31;100093.91;;;18.99;71.46
60258;BME280;46115;44.484;11.314;2023-04-29T15:01:34;100078.72;;;19.09;71.49
60258;BME280;46115;44.484;11.314;2023-04-29T15:05:38;100086.78;;;19.28;70.96
60258;BME280;46115;44.484;11.314;2023-04-29T15:09:41;100084.81;;;19.40;71.02
60258;BME280;46115;44.484;11.314;2023-04-29T15:13:43;100051.66;;;19.31;71.08
60258;BME280;46115;44.484;11.314;2023-04-29T15:17:46;100086.03;;;19.07;72.90
60258;BME280;46115;44.484;11.314;2023-04-29T15:21:49;100086.91;;;19.27;71.59
60258;BME280;46115;44.484;11.314;2023-04-29T15:25:52;100090.72;;;19.15;72.11
60258;BME280;46115;44.484;11.314;2023-04-29T15:29:54;100091.56;;;19.25;71.67
60258;BME280;46115;44.484;11.314;2023-04-29T15:33:58;100089.47;;;19.48;71.32
60258;BME280;46115;44.484;11.314;2023-04-29T15:38:01;100089.19;;;19.70;70.75
60258;BME280;46115;44.484;11.314;2023-04-29T15:42:04;100087.22;;;19.43;71.35
60258;BME280;46115;44.484;11.314;2023-04-29T15:46:07;100089.59;;;19.27;72.77
60258;BME280;46115;44.484;11.314;2023-04-29T15:50:09;100076.34;;;19.16;72.89
60258;BME280;46115;44.484;11.314;2023-04-29T15:54:13;100072.94;;;19.33;73.18
60258;BME280;46115;44.484;11.314;2023-04-29T15:58:15;100077.78;;;19.49;72.20
60258;BME280;46115;44.484;11.314;2023-04-29T16:02:18;100073.25;;;19.69;72.21
60258;BME280;46115;44.484;11.314;2023-04-29T16:06:20;100068.31;;;19.64;72.71
60258;BME280;46115;44.484;11.314;2023-04-29T16:10:24;100053.78;;;19.28;73.23
60258;BME280;46115;44.484;11.314;2023-04-29T16:14:27;100055.31;;;19.21;74.63
60258;BME280;46115;44.484;11.314;2023-04-29T16:18:30;100056.31;;;19.29;74.43
60258;BME280;46115;44.484;11.314;2023-04-29T16:22:33;100064.53;;;18.38;78.60
60258;BME280;46115;44.484;11.314;2023-04-29T16:26:36;100059.59;;;18.64;77.77
60258;BME280;46115;44.484;11.314;2023-04-29T16:30:40;100063.03;;;18.76;77.51
60258;BME280;46115;44.484;11.314;2023-04-29T16:34:42;100059.28;;;19.17;75.98
60258;BME280;46115;44.484;11.314;2023-04-29T16:38:45;100056.41;;;18.80;77.30
60258;BME280;46115;44.484;11.314;2023-04-29T16:42:49;100066.91;;;18.62;78.28
60258;BME280;46115;44.484;11.314;2023-04-29T16:46:51;100061.34;;;18.44;78.75
60258;BME280;46115;44.484;11.314;2023-04-29T16:50:53;100058.47;;;18.66;77.60
60258;BME280;46115;44.484;11.314;2023-04-29T16:54:56;100047.88;;;18.65;77.62
60258;BME280;46115;44.484;11.314;2023-04-29T16:59:02;100050.44;;;18.66;77.07
60258;BME280;46115;44.484;11.314;2023-04-29T17:03:04;100042.81;;;18.62;77.45
60258;BME280;46115;44.484;11.314;2023-04-29T17:07:07;100041.47;;;18.77;76.62
60258;BME280;46115;44.484;11.314;2023-04-29T17:11:10;100045.31;;;18.54;77.82
60258;BME280;46115;44.484;11.314;2023-04-29T17:15:14;100056.16;;;18.52;77.89
60258;BME280;46115;44.484;11.314;2023-04-29T17:19:16;100045.38;;;18.73;76.93
60258;BME280;46115;44.484;11.314;2023-04-29T17:23:19;100046.09;;;18.75;76.34
60258;BME280;46115;44.484;11.314;2023-04-29T17:27:21;100048.84;;;18.24;78.75
60258;BME280;46115;44.484;11.314;2023-04-29T17:31:25;100039.56;;;18.28;78.84
60258;BME280;46115;44.484;11.314;2023-04-29T17:35:35;100047.38;;;18.10;79.81
60258;BME280;46115;44.484;11.314;2023-04-29T17:39:37;100045.56;;;17.90;81.25
60258;BME280;46115;44.484;11.314;2023-04-29T17:43:40;100041.19;;;17.89;81.16
60258;BME280;46115;44.484;11.314;2023-04-29T17:47:44;100037.56;;;17.90;81.39
60258;BME280;46115;44.484;11.314;2023-04-29T17:51:46;100045.38;;;17.82;81.24
60258;BME280;46115;44.484;11.314;2023-04-29T17:55:49;100042.72;;;17.82;81.44
60258;BME280;46115;44.484;11.314;2023-04-29T17:59:51;100048.06;;;17.82;81.64
60258;BME280;46115;44.484;11.314;2023-04-29T18:03:55;100036.25;;;17.84;80.68
60258;BME280;46115;44.484;11.314;2023-04-29T18:07:57;100047.75;;;17.75;81.21
60258;BME280;46115;44.484;11.314;2023-04-29T18:12:00;100027.22;;;17.75;81.43
60258;BME280;46115;44.484;11.314;2023-04-29T18:16:03;100032.44;;;17.66;82.00
60258;BME280;46115;44.484;11.314;2023-04-29T18:20:09;100038.28;;;17.71;81.80
60258;BME280;46115;44.484;11.314;2023-04-29T18:24:11;100049.03;;;17.81;81.58
60258;BME280;46115;44.484;11.314;2023-04-29T18:28:14;100057.03;;;18.01;80.61
60258;BME280;46115;44.484;11.314;2023-04-29T18:32:16;100048.78;;;17.84;81.62
60258;BME280;46115;44.484;11.314;2023-04-29T18:36:20;100048.25;;;17.90;80.97
60258;BME280;46115;44.484;11.314;2023-04-29T18:40:23;100045.78;;;17.77;82.26
60258;BME280;46115;44.484;11.314;2023-04-29T18:44:26;100056.13;;;17.91;81.78
60258;BME280;46115;44.484;11.314;2023-04-29T18:48:29;100058.84;;;17.70;82.65
60258;BME280;46115;44.484;11.314;2023-04-29T18:52:33;100045.81;;;17.45;83.84
60258;BME280;46115;44.484;11.314;2023-04-29T18:56:35;100061.25;;;17.62;83.55
60258;BME280;46115;44.484;11.314;2023-04-29T19:00:38;100067.31;;;17.75;83.07
60258;BME280;46115;44.484;11.314;2023-04-29T22:06:08;100205.34;;;15.85;96.04
60258;BME280;46115;44.484;11.314;2023-04-29T22:10:11;100205.16;;;15.99;94.72
60258;BME280;46115;44.484;11.314;2023-04-29T22:14:13;100161.78;;;15.97;92.65
60258;BME280;46115;44.484;11.314;2023-04-29T22:18:15;100201.09;;;15.82;95.21
60258;BME280;46115;44.484;11.314;2023-04-29T22:22:19;100201.97;;;15.94;94.63
60258;BME280;46115;44.484;11.314;2023-04-29T22:26:22;100209.91;;;15.72;91.96
60258;BME280;46115;44.484;11.314;2023-04-29T22:30:25;100206.69;;;15.90;91.23
60258;BME280;46115;44.484;11.314;2023-04-29T22:34:27;100200.28;;;15.93;93.03
60258;BME280;46115;44.484;11.314;2023-04-29T22:38:31;100204.72;;;15.81;92.86
60258;BME280;46115;44.484;11.314;2023-04-29T22:42:34;100210.44;;;15.88;91.25
60258;BME280;46115;44.484;11.314;2023-04-29T22:46:37;100221.66;;;16.50;86.41
60258;BME280;46115;44.484;11.314;2023-04-29T22:50:39;100225.44;;;16.13;87.13
60258;BME280;46115;44.484;11.314;2023-04-29T22:54:43;100234.63;;;16.33;86.16
60258;BME280;46115;44.484;11.314;2023-04-29T22:58:46;100240.19;;;16.41;84.83
60258;BME280;46115;44.484;11.314;2023-04-29T23:02:48;100227.03;;;15.44;91.14
60258;BME280;46115;44.484;11.314;2023-04-29T23:06:50;100227.75;;;15.46;96.11
60258;BME280;46115;44.484;11.314;2023-04-29T23:10:54;100208.84;;;15.38;94.73
60258;BME280;46115;44.484;11.314;2023-04-29T23:14:57;100218.06;;;15.45;94.75
60258;BME280;46115;44.484;11.314;2023-04-29T23:18:59;100214.22;;;15.49;93.78
60258;BME280;46115;44.484;11.314;2023-04-29T23:23:01;100212.94;;;15.78;90.53
60258;BME280;46115;44.484;11.314;2023-04-29T23:27:06;100214.59;;;15.68;91.90
60258;BME280;46115;44.484;11.314;2023-04-29T23:31:08;100215.16;;;15.60;92.35
60258;BME280;46115;44.484;11.314;2023-04-29T23:35:10;100212.06;;;15.54;94.80
60258;BME280;46115;44.484;11.314;2023-04-29T23:39:13;100206.22;;;15.62;92.40
60258;BME280;46115;44.484;11.314;2023-04-29T23:43:16;100174.06;;;15.15;94.28
60258;BME280;46115;44.484;11.314;2023-04-29T23:47:20;100194.25;;;15.54;93.59
60258;BME280;46115;44.484;11.314;2023-04-29T23:51:22;100194.28;;;15.18;93.37
60258;BME280;46115;44.484;11.314;2023-04-29T23:55:26;100188.22;;;15.28;93.32
60258;BME280;46115;44.484;11.314;2023-04-29T23:59:30;100182.81;;;15.41;93.17
